Time;durP1;ratioP1;P1;durP2;ratioP2;P2;SDS_P1;SDS_P2;PMS_P1;PMS_P2;Temp;Humidity;BMP_temperature;BMP_pressure;BME280_temperature;BME280_humidity;BME280_pressure;Samples;Min_cycle;Max_cycle;Signal;HPM_P1;HPM_P2
2022/10/27 00:00:48;;;;;;;26.17;13.10;;;13.10;99.90;;;;;;5030192;28;20037;-77
2022/10/27 00:03:15;;;;;;;29.20;13.73;;;13.10;99.90;;;;;;5029466;28;20429;-77
2022/10/27 00:05:41;;;;;;;26.55;14.00;;;13.10;99.90;;;;;;5030902;28;20413;-77
2022/10/27 00:08:07;;;;;;;32.33;15.00;;;13.00;99.90;;;;;;5031102;28;20029;-77
2022/10/27 00:10:33;;;;;;;24.75;14.13;;;13.00;99.90;;;;;;5028995;28;20065;-77
2022/10/27 00:12:58;;;;;;;27.55;13.57;;;13.00;99.90;;;;;;5030444;28;20049;-77
2022/10/27 00:15:24;;;;;;;22.88;12.80;;;12.90;99.90;;;;;;5031439;28;20056;-77
2022/10/27 00:17:50;;;;;;;22.30;12.50;;;12.90;99.90;;;;;;5031311;28;20029;-77
2022/10/27 00:20:16;;;;;;;36.65;15.65;;;12.90;99.90;;;;;;5030767;28;20018;-77
2022/10/27 00:22:41;;;;;;;27.65;17.48;;;12.90;99.90;;;;;;5028446;28;20083;-77
2022/10/27 00:25:07;;;;;;;31.67;16.58;;;12.90;99.90;;;;;;5029301;28;20420;-77
2022/10/27 00:27:33;;;;;;;39.30;18.58;;;12.90;99.90;;;;;;5031087;28;20526;-78
2022/10/27 00:29:58;;;;;;;34.70;17.33;;;12.90;99.90;;;;;;5030879;28;20033;-78
2022/10/27 00:32:24;;;;;;;35.85;17.60;;;12.90;99.90;;;;;;5030692;28;20056;-77
2022/10/27 00:34:49;;;;;;;33.83;18.13;;;12.90;99.90;;;;;;5013281;28;20026;-77
2022/10/27 00:37:15;;;;;;;30.05;17.55;;;12.90;99.90;;;;;;5012652;28;20097;-78
2022/10/27 00:39:41;;;;;;;26.48;16.13;;;12.90;99.90;;;;;;5014835;28;20030;-78
2022/10/27 00:42:12;;;;;;;26.02;16.20;;;12.90;99.90;;;;;;5031291;28;20055;-77
2022/10/27 00:44:45;;;;;;;27.38;15.02;;;12.80;99.90;;;;;;5034174;28;20034;-76
2022/10/27 00:47:13;;;;;;;35.07;16.10;;;12.80;99.90;;;;;;5033711;28;20021;-77
2022/10/27 00:49:58;;;;;;;28.42;16.67;;;12.80;99.90;;;;;;5024657;28;20037;-76
2022/10/27 00:52:29;;;;;;;31.23;16.95;;;12.80;99.90;;;;;;5034688;28;20028;-77
2022/10/27 00:55:00;;;;;;;29.13;16.33;;;12.80;99.90;;;;;;5034633;28;20123;-78
2022/10/27 00:57:27;;;;;;;30.63;15.63;;;12.80;99.90;;;;;;5034748;28;20026;-78
2022/10/27 00:59:53;;;;;;;26.63;14.75;;;12.80;99.90;;;;;;5034322;28;20041;-79
2022/10/27 01:02:19;;;;;;;25.80;15.52;;;12.80;99.90;;;;;;5033023;28;20033;-77
2022/10/27 01:04:59;;;;;;;27.75;14.38;;;12.80;99.90;;;;;;5033780;28;20044;-77
2022/10/27 01:07:27;;;;;;;37.03;14.80;;;12.80;99.90;;;;;;5034290;28;20372;-77
2022/10/27 01:09:52;;;;;;;30.45;15.40;;;12.80;99.90;;;;;;5033766;28;20433;-77
2022/10/27 01:12:18;;;;;;;25.38;14.10;;;12.80;99.90;;;;;;5031669;28;20049;-78
2022/10/27 01:14:44;;;;;;;30.25;15.02;;;12.80;99.90;;;;;;5033805;28;20030;-77
2022/10/27 01:17:13;;;;;;;22.38;14.13;;;12.80;99.90;;;;;;5032263;28;20030;-77
2022/10/27 01:19:47;;;;;;;22.70;13.85;;;12.80;99.90;;;;;;5024071;28;20369;-78
2022/10/27 01:22:15;;;;;;;25.70;14.10;;;12.80;99.90;;;;;;5023820;28;20026;-77
2022/10/27 01:25:04;;;;;;;26.65;15.80;;;12.80;99.90;;;;;;5036278;28;20040;-76
2022/10/27 01:28:09;;;;;;;25.55;13.80;;;12.80;99.90;;;;;;5024313;28;20037;-77
2022/10/27 01:31:09;;;;;;;25.48;14.70;;;12.80;99.90;;;;;;5033703;28;20072;-76
2022/10/27 01:34:03;;;;;;;28.15;13.63;;;12.70;99.90;;;;;;5032439;28;20503;-78
2022/10/27 01:36:40;;;;;;;26.88;13.32;;;12.80;99.90;;;;;;4990082;28;20034;-78
2022/10/27 01:39:17;;;;;;;21.98;12.60;;;12.70;99.90;;;;;;5023720;28;20055;-78
2022/10/27 01:41:49;;;;;;;19.42;10.98;;;12.70;99.90;;;;;;5033034;28;20018;-77
2022/10/27 01:44:21;;;;;;;20.60;11.77;;;12.60;99.90;;;;;;5031121;28;20031;-77
2022/10/27 01:46:48;;;;;;;19.85;10.65;;;12.60;99.90;;;;;;5033741;28;20064;-76
2022/10/27 01:49:14;;;;;;;20.30;11.93;;;12.60;99.90;;;;;;5033311;28;20052;-77
2022/10/27 01:51:39;;;;;;;21.20;13.25;;;12.50;99.90;;;;;;5034867;28;20038;-76
2022/10/27 01:54:06;;;;;;;27.38;13.70;;;12.50;99.90;;;;;;5033022;28;20046;-76
2022/10/27 01:56:41;;;;;;;23.60;14.05;;;12.50;99.90;;;;;;5030080;28;20033;-78
2022/10/27 01:59:34;;;;;;;25.55;14.55;;;12.50;99.90;;;;;;5033280;28;20026;-77
2022/10/27 02:02:21;;;;;;;24.98;13.95;;;12.50;99.90;;;;;;5014349;28;20118;-77
2022/10/27 02:05:31;;;;;;;26.60;14.43;;;12.50;99.90;;;;;;5033032;28;20037;-78
2022/10/27 02:08:26;;;;;;;21.65;12.10;;;12.50;99.90;;;;;;5005098;28;20414;-78
2022/10/27 02:11:06;;;;;;;22.60;11.90;;;12.50;99.90;;;;;;4998621;28;20053;-77
2022/10/27 02:13:36;;;;;;;19.13;11.13;;;12.40;99.90;;;;;;5015312;28;20029;-77
2022/10/27 02:16:10;;;;;;;22.13;12.15;;;12.40;99.90;;;;;;5015064;28;20037;-77
2022/10/27 02:18:44;;;;;;;23.55;11.82;;;12.30;99.90;;;;;;5034616;28;20030;-78
2022/10/27 02:21:11;;;;;;;23.17;11.77;;;12.30;99.90;;;;;;5039649;28;20045;-77
2022/10/27 02:23:38;;;;;;;22.27;12.05;;;12.30;99.90;;;;;;5031021;28;20095;-78
2022/10/27 02:26:16;;;;;;;25.20;11.68;;;12.30;99.90;;;;;;5031814;28;20395;-78
2022/10/27 02:29:14;;;;;;;19.63;11.77;;;12.30;99.90;;;;;;5032647;28;20021;-77
2022/10/27 02:31:45;;;;;;;19.35;10.63;;;12.30;99.90;;;;;;5017440;28;20069;-78
2022/10/27 02:34:13;;;;;;;17.75;11.32;;;12.30;99.90;;;;;;5032623;28;20077;-77
2022/10/27 02:36:39;;;;;;;17.48;10.55;;;12.20;99.90;;;;;;5031801;28;20033;-77
2022/10/27 02:39:04;;;;;;;17.35;10.20;;;12.20;99.90;;;;;;5032362;28;20038;-77
2022/10/27 02:41:30;;;;;;;18.17;10.40;;;12.10;99.90;;;;;;5032167;28;20155;-78
2022/10/27 02:43:55;;;;;;;20.70;10.68;;;12.00;99.90;;;;;;5029853;28;20036;-77
2022/10/27 02:46:21;;;;;;;19.67;11.02;;;12.00;99.90;;;;;;5032184;28;20022;-78
2022/10/27 02:48:46;;;;;;;20.13;10.98;;;11.90;99.90;;;;;;5032126;28;20030;-77
2022/10/27 02:51:13;;;;;;;21.98;10.88;;;11.90;99.90;;;;;;5014360;28;20049;-78
2022/10/27 02:53:39;;;;;;;26.30;11.57;;;11.80;99.90;;;;;;5033852;28;20073;-77
2022/10/27 02:56:06;;;;;;;21.33;11.02;;;11.80;99.90;;;;;;5015485;28;20084;-76
2022/10/27 02:58:31;;;;;;;19.50;11.15;;;11.80;99.90;;;;;;5032012;28;20021;-77
2022/10/27 03:00:57;;;;;;;21.02;10.70;;;11.70;99.90;;;;;;5029419;28;20386;-77
2022/10/27 03:03:23;;;;;;;16.10;9.73;;;11.70;99.90;;;;;;5030768;28;20022;-78
2022/10/27 03:05:49;;;;;;;21.73;10.77;;;11.60;99.90;;;;;;5031027;28;20041;-77
2022/10/27 03:08:15;;;;;;;20.35;10.68;;;11.60;99.90;;;;;;5031930;28;20029;-77
2022/10/27 03:10:42;;;;;;;18.65;10.88;;;11.60;99.90;;;;;;5013670;28;20045;-78
2022/10/27 03:13:07;;;;;;;24.00;9.95;;;11.60;99.90;;;;;;5030948;28;20034;-77
2022/10/27 03:15:33;;;;;;;21.75;11.02;;;11.60;99.90;;;;;;5031958;28;20127;-78
2022/10/27 03:17:58;;;;;;;19.23;10.60;;;11.60;99.90;;;;;;5031475;28;20082;-78
2022/10/27 03:20:24;;;;;;;19.25;10.10;;;11.50;99.90;;;;;;5014276;28;20036;-78
2022/10/27 03:22:50;;;;;;;16.25;9.52;;;11.60;99.90;;;;;;5013949;28;20030;-77
2022/10/27 03:25:15;;;;;;;24.02;10.43;;;11.60;99.90;;;;;;5030068;28;20021;-77
2022/10/27 03:27:42;;;;;;;19.77;10.77;;;11.70;99.90;;;;;;5030847;28;20087;-78
2022/10/27 03:30:14;;;;;;;24.05;10.23;;;11.70;99.90;;;;;;5031670;28;20052;-77
2022/10/27 03:32:39;;;;;;;21.77;11.65;;;11.80;99.90;;;;;;5030987;28;20067;-77
2022/10/27 03:35:06;;;;;;;29.25;10.95;;;11.70;99.90;;;;;;5030825;28;20097;-78
2022/10/27 03:37:31;;;;;;;21.42;10.10;;;11.80;99.90;;;;;;5013342;28;20030;-78
2022/10/27 03:39:57;;;;;;;19.67;10.50;;;11.80;99.90;;;;;;5029814;28;20044;-78
2022/10/27 03:42:22;;;;;;;15.98;10.32;;;11.80;99.90;;;;;;5031612;28;20042;-78
2022/10/27 03:44:48;;;;;;;19.77;10.68;;;11.80;99.90;;;;;;5028738;28;20037;-78
2022/10/27 03:47:14;;;;;;;21.20;11.70;;;11.80;99.90;;;;;;5031060;28;20025;-77
2022/10/27 03:49:39;;;;;;;22.65;10.60;;;11.80;99.90;;;;;;5029713;28;20045;-78
2022/10/27 03:52:05;;;;;;;20.08;11.80;;;11.80;99.90;;;;;;5029873;28;20026;-78
2022/10/27 03:54:31;;;;;;;20.80;10.63;;;11.80;99.90;;;;;;5030440;28;20116;-78
2022/10/27 03:56:57;;;;;;;28.67;12.68;;;11.80;99.90;;;;;;5013601;28;20017;-78
2022/10/27 03:59:23;;;;;;;19.80;10.57;;;11.80;99.90;;;;;;5022148;28;20021;-78
2022/10/27 04:01:49;;;;;;;19.98;10.68;;;11.80;99.90;;;;;;5032941;28;20049;-78
2022/10/27 04:04:14;;;;;;;21.85;11.32;;;11.80;99.90;;;;;;5031576;28;20702;-78
2022/10/27 04:06:40;;;;;;;15.82;10.30;;;11.90;99.90;;;;;;5013602;28;20033;-78
2022/10/27 04:09:06;;;;;;;18.70;10.38;;;11.90;99.90;;;;;;5030404;28;20046;-79
2022/10/27 04:11:31;;;;;;;21.75;10.73;;;11.80;99.90;;;;;;5031118;28;20108;-78
2022/10/27 04:13:57;;;;;;;24.98;11.25;;;11.80;99.90;;;;;;5033739;28;20036;-78
2022/10/27 04:16:23;;;;;;;21.00;10.35;;;11.80;99.90;;;;;;5028797;28;20041;-80
2022/10/27 04:18:49;;;;;;;30.38;11.38;;;11.80;99.90;;;;;;5032924;28;20037;-79
2022/10/27 04:21:15;;;;;;;21.38;10.82;;;11.80;99.90;;;;;;5035583;28;20031;-79
2022/10/27 04:23:41;;;;;;;19.40;10.93;;;11.80;99.90;;;;;;5034817;28;20026;-79
2022/10/27 04:26:06;;;;;;;23.38;11.23;;;11.80;99.90;;;;;;5028524;28;20464;-78
2022/10/27 04:28:32;;;;;;;20.02;10.70;;;11.70;99.90;;;;;;5035366;28;20021;-79
2022/10/27 04:30:58;;;;;;;25.88;10.75;;;11.70;99.90;;;;;;5034872;28;20029;-78
2022/10/27 04:33:24;;;;;;;16.60;9.93;;;11.70;99.90;;;;;;5033415;28;20037;-78
2022/10/27 04:35:49;;;;;;;19.00;11.07;;;11.60;99.90;;;;;;5034227;28;20033;-78
2022/10/27 04:38:15;;;;;;;20.13;10.70;;;11.60;99.90;;;;;;5016194;28;20036;-78
2022/10/27 04:40:41;;;;;;;22.08;10.95;;;11.70;99.90;;;;;;5034832;28;20029;-79
2022/10/27 04:43:06;;;;;;;18.70;10.23;;;11.70;99.90;;;;;;5032977;28;20049;-79
2022/10/27 04:45:33;;;;;;;19.45;10.70;;;11.70;99.90;;;;;;5031849;28;20055;-77
2022/10/27 04:47:59;;;;;;;19.90;10.20;;;11.70;99.90;;;;;;5034767;28;20025;-79
2022/10/27 04:50:24;;;;;;;17.90;11.00;;;11.70;99.90;;;;;;5034282;28;20103;-79
2022/10/27 04:53:01;;;;;;;15.85;9.77;;;11.70;99.90;;;;;;5032146;28;20067;-79
2022/10/27 04:55:29;;;;;;;20.55;10.95;;;11.70;99.90;;;;;;5031938;28;20049;-79
2022/10/27 04:57:55;;;;;;;23.20;9.88;;;11.70;99.90;;;;;;5033276;28;20064;-78
2022/10/27 05:00:21;;;;;;;22.88;11.70;;;11.70;99.90;;;;;;5032876;28;20025;-78
2022/10/27 05:02:55;;;;;;;23.67;11.55;;;11.70;99.90;;;;;;5016239;28;20026;-77
2022/10/27 05:05:22;;;;;;;24.33;13.55;;;11.80;99.90;;;;;;5034266;28;20033;-77
2022/10/27 05:07:57;;;;;;;20.77;12.65;;;11.80;99.90;;;;;;5032824;28;20040;-77
2022/10/27 05:10:23;;;;;;;22.77;11.95;;;11.80;99.90;;;;;;5035833;28;20072;-79
2022/10/27 05:12:49;;;;;;;23.08;12.20;;;11.90;99.90;;;;;;5034592;28;20046;-79
2022/10/27 05:15:15;;;;;;;21.45;12.02;;;11.90;99.90;;;;;;5034138;28;20585;-79
2022/10/27 05:17:41;;;;;;;18.83;11.48;;;11.90;99.90;;;;;;5033657;28;20052;-78
2022/10/27 05:20:07;;;;;;;23.55;11.80;;;12.00;99.90;;;;;;5032808;28;20108;-78
2022/10/27 05:22:33;;;;;;;21.13;11.05;;;12.00;99.90;;;;;;5033709;28;20437;-79
2022/10/27 05:24:59;;;;;;;20.00;11.77;;;12.00;99.90;;;;;;5034972;28;20025;-77
2022/10/27 05:27:24;;;;;;;23.77;11.93;;;12.00;99.90;;;;;;5036132;28;20022;-80
2022/10/27 05:29:50;;;;;;;22.42;11.95;;;12.10;99.90;;;;;;5019318;28;20052;-80
2022/10/27 05:32:16;;;;;;;22.40;12.60;;;12.00;99.90;;;;;;5029999;28;20029;-81
2022/10/27 05:34:42;;;;;;;24.67;12.75;;;12.10;99.90;;;;;;5015356;28;20021;-80
2022/10/27 05:37:07;;;;;;;22.90;12.63;;;12.10;99.90;;;;;;5032910;28;20017;-81
2022/10/27 05:39:33;;;;;;;20.95;12.23;;;12.00;99.90;;;;;;5032816;28;20105;-81
2022/10/27 05:41:59;;;;;;;27.75;12.07;;;12.10;99.90;;;;;;5033894;28;20084;-81
2022/10/27 05:44:27;;;;;;;21.65;12.43;;;12.00;99.90;;;;;;5034380;28;20034;-82
2022/10/27 05:46:55;;;;;;;21.90;12.18;;;12.00;99.90;;;;;;5016035;28;20048;-80
2022/10/27 05:49:21;;;;;;;23.83;11.85;;;12.00;99.90;;;;;;5035092;28;20094;-80
2022/10/27 05:51:51;;;;;;;27.27;12.13;;;12.10;99.90;;;;;;5035254;28;20037;-79
2022/10/27 05:54:17;;;;;;;27.88;12.65;;;12.00;99.90;;;;;;5032501;28;20124;-82
2022/10/27 05:56:43;;;;;;;24.10;12.85;;;12.10;99.90;;;;;;5035984;28;20131;-79
2022/10/27 05:59:12;;;;;;;23.42;12.20;;;12.10;99.90;;;;;;5034250;28;20065;-79
2022/10/27 06:01:38;;;;;;;22.08;13.10;;;12.10;99.90;;;;;;5032615;28;20057;-80
2022/10/27 06:04:04;;;;;;;22.40;12.90;;;12.10;99.90;;;;;;5034465;28;20040;-79
2022/10/27 06:06:29;;;;;;;19.15;11.32;;;12.10;99.90;;;;;;5029719;28;20055;-78
2022/10/27 06:08:55;;;;;;;24.58;13.20;;;12.00;99.90;;;;;;5030956;28;20025;-79
2022/10/27 06:11:21;;;;;;;27.73;14.23;;;12.10;99.90;;;;;;5033179;28;20041;-78
2022/10/27 06:13:50;;;;;;;22.90;13.70;;;12.10;99.90;;;;;;5034420;28;20044;-79
2022/10/27 06:16:26;;;;;;;22.48;12.32;;;12.10;99.90;;;;;;5033762;28;20029;-78
2022/10/27 06:18:52;;;;;;;28.02;14.10;;;12.10;99.90;;;;;;5034267;28;20080;-78
2022/10/27 06:21:19;;;;;;;26.48;14.43;;;12.10;99.90;;;;;;5033857;28;20498;-77
2022/10/27 06:23:48;;;;;;;25.63;13.93;;;12.10;99.90;;;;;;5029994;28;20048;-77
2022/10/27 06:26:14;;;;;;;27.67;13.77;;;12.00;99.90;;;;;;5030344;28;20079;-79
2022/10/27 06:28:40;;;;;;;24.25;12.88;;;12.00;99.90;;;;;;5034654;28;20048;-78
2022/10/27 06:31:05;;;;;;;20.73;12.18;;;12.10;99.90;;;;;;5034725;28;20046;-79
2022/10/27 06:33:31;;;;;;;36.90;12.93;;;12.00;99.90;;;;;;5029917;28;20089;-79
2022/10/27 06:35:56;;;;;;;22.15;12.18;;;12.00;99.90;;;;;;5031091;28;21290;-77
2022/10/27 06:38:22;;;;;;;22.50;13.38;;;12.00;99.90;;;;;;5032401;28;20044;-79
2022/10/27 06:40:48;;;;;;;25.00;12.80;;;12.00;99.90;;;;;;5031621;28;20055;-79
2022/10/27 06:43:13;;;;;;;25.08;13.10;;;12.00;99.90;;;;;;5014006;28;20109;-79
2022/10/27 06:45:40;;;;;;;28.13;13.52;;;12.00;99.90;;;;;;5029834;28;20032;-79
2022/10/27 06:48:08;;;;;;;24.27;14.05;;;12.00;99.90;;;;;;5030967;28;20035;-80
2022/10/27 06:50:38;;;;;;;31.50;14.15;;;12.00;99.90;;;;;;5031920;28;20041;-79
2022/10/27 06:53:04;;;;;;;28.80;13.80;;;12.00;99.90;;;;;;5030851;28;20117;-79
2022/10/27 06:55:30;;;;;;;26.15;13.88;;;12.10;99.90;;;;;;5031780;28;20050;-79
2022/10/27 06:57:56;;;;;;;24.92;14.68;;;12.00;99.90;;;;;;5033076;28;20749;-80
2022/10/27 07:00:26;;;;;;;32.80;15.02;;;12.00;99.90;;;;;;5016769;28;20033;-80
2022/10/27 07:02:52;;;;;;;27.20;13.30;;;12.00;99.90;;;;;;5033404;28;20028;-80
2022/10/27 07:05:18;;;;;;;25.48;14.32;;;12.00;99.90;;;;;;5032746;28;20025;-80
2022/10/27 07:07:48;;;;;;;27.92;14.32;;;12.00;99.90;;;;;;5032525;28;20052;-80
2022/10/27 07:10:17;;;;;;;29.95;16.05;;;12.00;99.90;;;;;;5032425;28;20033;-80
2022/10/27 07:13:00;;;;;;;28.50;14.93;;;12.10;99.90;;;;;;5032530;28;20030;-78
2022/10/27 07:15:30;;;;;;;40.45;15.73;;;12.00;99.90;;;;;;5034426;28;20037;-80
2022/10/27 07:18:04;;;;;;;28.73;15.50;;;12.00;99.90;;;;;;5045049;28;20049;-80
2022/10/27 07:20:32;;;;;;;23.58;14.82;;;12.00;99.90;;;;;;5033799;28;20022;-80
2022/10/27 07:22:58;;;;;;;26.60;15.20;;;12.00;99.90;;;;;;5032704;28;20100;-80
2022/10/27 07:25:24;;;;;;;29.08;15.65;;;12.00;99.90;;;;;;5032218;28;20084;-80
2022/10/27 07:27:52;;;;;;;34.67;18.83;;;12.10;99.90;;;;;;5026859;28;20385;-80
2022/10/27 07:30:24;;;;;;;31.80;16.88;;;12.10;99.90;;;;;;5032352;28;20497;-80
2022/10/27 07:32:49;;;;;;;32.22;17.63;;;12.20;99.90;;;;;;5032443;28;20029;-79
2022/10/27 07:35:16;;;;;;;36.85;16.95;;;12.20;99.90;;;;;;5031621;28;20029;-81
2022/10/27 07:37:46;;;;;;;33.88;18.02;;;12.30;99.90;;;;;;5031189;28;20029;-78
2022/10/27 07:40:13;;;;;;;37.10;17.35;;;12.40;99.90;;;;;;5030925;28;20038;-80
2022/10/27 07:42:44;;;;;;;34.78;17.30;;;12.50;99.90;;;;;;5032650;28;20030;-80
2022/10/27 07:45:10;;;;;;;35.63;19.17;;;12.60;99.90;;;;;;5030100;28;20041;-79
2022/10/27 07:47:35;;;;;;;40.65;19.75;;;12.70;99.90;;;;;;5031399;28;20037;-80
2022/10/27 07:50:01;;;;;;;38.53;20.75;;;12.80;99.90;;;;;;5032142;28;20062;-78
2022/10/27 07:52:27;;;;;;;35.63;19.95;;;12.90;99.90;;;;;;5033819;28;20022;-78
2022/10/27 07:54:52;;;;;;;34.55;19.10;;;13.00;99.90;;;;;;5038660;28;20056;-79
2022/10/27 07:57:18;;;;;;;35.63;18.90;;;13.10;99.90;;;;;;5020358;28;20049;-79
2022/10/27 07:59:44;;;;;;;35.03;19.13;;;13.30;99.90;;;;;;5038112;28;20026;-77
2022/10/27 08:02:10;;;;;;;30.80;17.25;;;13.50;99.90;;;;;;5037835;28;20044;-77
2022/10/27 08:04:36;;;;;;;32.72;16.58;;;13.70;99.90;;;;;;5036963;28;20025;-78
2022/10/27 08:07:01;;;;;;;30.55;16.20;;;13.90;99.90;;;;;;5038435;28;20022;-78
2022/10/27 08:09:27;;;;;;;27.63;16.30;;;14.20;99.90;;;;;;5038822;28;20112;-79
2022/10/27 08:11:53;;;;;;;26.67;15.50;;;14.30;99.90;;;;;;5037813;28;20037;-78
2022/10/27 08:14:18;;;;;;;41.33;16.48;;;14.40;99.90;;;;;;5038389;28;20557;-77
2022/10/27 08:16:47;;;;;;;39.70;17.15;;;14.40;99.90;;;;;;5021104;28;20045;-79
2022/10/27 08:19:12;;;;;;;24.65;15.10;;;14.40;99.90;;;;;;5023898;28;20064;-77
2022/10/27 08:21:38;;;;;;;28.33;15.25;;;14.40;99.90;;;;;;5038457;28;20101;-77
2022/10/27 08:24:04;;;;;;;27.67;16.25;;;14.40;99.90;;;;;;5021965;28;20085;-78
2022/10/27 08:26:30;;;;;;;31.67;15.43;;;14.40;99.90;;;;;;5036972;28;20028;-77
2022/10/27 08:28:56;;;;;;;35.40;16.38;;;14.40;99.90;;;;;;5038879;28;20037;-78
2022/10/27 08:31:23;;;;;;;25.10;15.75;;;14.50;99.90;;;;;;5021195;28;20033;-79
2022/10/27 08:33:49;;;;;;;31.33;15.25;;;14.50;99.90;;;;;;5036942;28;20748;-77
2022/10/27 08:36:17;;;;;;;28.25;15.60;;;14.70;99.90;;;;;;5039277;28;20040;-79
2022/10/27 08:38:44;;;;;;;29.88;15.52;;;14.80;99.90;;;;;;5036767;28;20128;-78
2022/10/27 08:41:10;;;;;;;27.42;14.82;;;14.90;99.90;;;;;;5035254;28;20021;-77
2022/10/27 08:43:58;;;;;;;27.90;15.10;;;14.90;99.90;;;;;;5027377;28;20390;-77
2022/10/27 08:46:43;;;;;;;30.60;15.13;;;14.90;99.90;;;;;;5021152;28;20113;-79
2022/10/27 08:49:44;;;;;;;24.20;13.65;;;15.00;99.90;;;;;;5035603;28;20056;-79
2022/10/27 08:52:32;;;;;;;24.42;13.13;;;15.00;99.90;;;;;;5037041;28;20026;-78
2022/10/27 08:55:14;;;;;;;28.23;13.38;;;15.20;99.90;;;;;;5033768;28;20049;-78
2022/10/27 08:58:06;;;;;;;35.28;13.45;;;15.40;99.90;;;;;;5025903;28;20028;-78
2022/10/27 09:00:44;;;;;;;24.45;12.70;;;15.60;99.90;;;;;;4995964;28;20124;-78
2022/10/27 09:03:35;;;;;;;24.58;14.00;;;15.80;99.90;;;;;;5035078;28;20045;-78
2022/10/27 09:06:23;;;;;;;26.13;11.95;;;15.90;99.90;;;;;;5034812;28;20033;-77
2022/10/27 09:09:17;;;;;;;21.42;12.75;;;15.90;99.90;;;;;;5034997;28;20532;-78
2022/10/27 09:12:09;;;;;;;21.90;11.23;;;16.00;99.90;;;;;;5035189;28;20034;-78
2022/10/27 09:14:37;;;;;;;17.70;10.70;;;16.10;99.90;;;;;;5024376;28;20041;-77
2022/10/27 09:17:19;;;;;;;20.42;11.55;;;16.10;99.90;;;;;;5018784;28;20033;-77
2022/10/27 09:19:55;;;;;;;19.83;11.05;;;16.10;99.90;;;;;;5020353;28;20059;-77
2022/10/27 09:22:22;;;;;;;19.92;10.70;;;16.10;99.90;;;;;;5034103;28;20038;-77
2022/10/27 09:25:03;;;;;;;24.73;10.77;;;16.10;99.90;;;;;;5022364;28;20611;-76
2022/10/27 09:27:29;;;;;;;15.80;9.43;;;16.10;99.90;;;;;;5033666;28;20022;-77
2022/10/27 09:30:00;;;;;;;18.27;10.80;;;16.10;99.90;;;;;;5032852;28;20037;-77
2022/10/27 09:32:26;;;;;;;18.85;10.68;;;16.20;99.90;;;;;;5035630;28;20032;-78
2022/10/27 09:35:10;;;;;;;24.95;10.82;;;16.20;99.90;;;;;;5028663;28;20030;-77
2022/10/27 09:37:41;;;;;;;20.63;10.73;;;16.20;99.90;;;;;;5033888;28;20030;-77
2022/10/27 09:40:19;;;;;;;19.42;10.02;;;16.20;99.90;;;;;;5035552;28;20033;-77
2022/10/27 09:42:47;;;;;;;29.42;10.48;;;16.20;99.90;;;;;;5032052;28;20034;-76
2022/10/27 09:45:18;;;;;;;19.48;9.25;;;16.20;99.90;;;;;;5034750;28;20029;-76
2022/10/27 09:47:51;;;;;;;18.67;10.05;;;16.30;99.90;;;;;;5033711;28;20024;-75
2022/10/27 09:50:35;;;;;;;24.00;10.05;;;16.20;99.90;;;;;;5040098;28;20033;-77
2022/10/27 09:53:03;;;;;;;16.00;9.65;;;16.40;99.90;;;;;;5034225;28;20034;-76
2022/10/27 09:55:50;;;;;;;18.35;9.35;;;16.50;99.90;;;;;;5022381;28;20053;-76
2022/10/27 09:58:17;;;;;;;18.95;9.80;;;16.60;99.90;;;;;;5018652;28;20065;-77
2022/10/27 10:00:43;;;;;;;18.52;8.75;;;16.60;99.90;;;;;;5022568;28;20041;-76
2022/10/27 10:03:20;;;;;;;21.35;8.63;;;16.70;99.90;;;;;;5023043;28;20041;-74
2022/10/27 10:05:56;;;;;;;16.40;8.63;;;16.70;99.90;;;;;;5022292;28;20556;-76
2022/10/27 10:08:25;;;;;;;16.45;8.90;;;16.70;99.90;;;;;;5021155;28;20044;-76
2022/10/27 10:11:02;;;;;;;23.77;8.98;;;16.70;99.90;;;;;;5022263;28;20129;-76
2022/10/27 10:13:33;;;;;;;15.07;8.80;;;16.70;99.90;;;;;;5023074;28;20041;-76
2022/10/27 10:16:07;;;;;;;16.52;8.63;;;16.70;99.90;;;;;;5021037;28;20041;-76
2022/10/27 10:18:34;;;;;;;20.10;8.02;;;16.90;99.90;;;;;;5022747;28;20076;-75
2022/10/27 10:21:07;;;;;;;12.85;7.85;;;17.00;99.90;;;;;;5022676;28;20026;-73
2022/10/27 10:23:46;;;;;;;16.35;7.32;;;17.00;99.90;;;;;;5020859;28;20044;-77
2022/10/27 10:26:27;;;;;;;17.63;7.30;;;17.10;99.90;;;;;;5022309;28;20463;-75
2022/10/27 10:29:12;;;;;;;15.65;8.23;;;17.20;99.90;;;;;;5021194;28;20026;-74
2022/10/27 10:31:37;;;;;;;17.08;7.60;;;17.40;99.90;;;;;;5021734;28;20032;-74
2022/10/27 10:34:07;;;;;;;13.23;7.03;;;17.50;99.90;;;;;;5020094;28;20065;-77
2022/10/27 10:36:38;;;;;;;14.70;6.88;;;17.70;99.90;;;;;;5020249;28;20022;-77
2022/10/27 10:39:26;;;;;;;15.52;5.95;;;17.90;99.90;;;;;;5000603;28;20029;-76
2022/10/27 10:42:14;;;;;;;12.75;6.10;;;18.00;99.90;;;;;;5022219;28;20141;-76
2022/10/27 10:44:40;;;;;;;17.63;6.70;;;18.10;99.90;;;;;;5021072;28;20025;-73
2022/10/27 10:47:21;;;;;;;14.73;6.45;;;18.20;99.90;;;;;;5016689;28;20045;-77
2022/10/27 10:49:54;;;;;;;13.45;5.88;;;18.20;99.90;;;;;;5021141;28;20049;-77
2022/10/27 10:52:24;;;;;;;13.90;6.28;;;18.30;99.90;;;;;;5019103;28;20104;-76
2022/10/27 10:54:50;;;;;;;12.38;5.75;;;18.40;99.90;;;;;;5031457;28;20045;-75
2022/10/27 10:57:24;;;;;;;13.75;5.63;;;18.40;99.90;;;;;;5033011;28;20437;-76
2022/10/27 10:59:53;;;;;;;12.15;5.60;;;18.50;99.90;;;;;;5032883;28;20026;-78
2022/10/27 11:02:30;;;;;;;14.65;5.40;;;18.50;99.90;;;;;;5033381;28;20034;-73
2022/10/27 11:05:22;;;;;;;9.20;4.95;;;18.50;99.90;;;;;;5032584;28;20112;-74
2022/10/27 11:07:49;;;;;;;12.25;5.32;;;18.50;99.90;;;;;;5030469;28;20585;-76
2022/10/27 11:10:17;;;;;;;12.05;4.55;;;18.60;99.90;;;;;;5031800;28;20044;-77
2022/10/27 11:12:57;;;;;;;13.68;4.65;;;18.70;99.90;;;;;;5022208;28;20043;-76
2022/10/27 11:15:31;;;;;;;11.23;4.32;;;18.70;99.90;;;;;;5034250;28;20104;-75
2022/10/27 11:18:29;;;;;;;9.25;4.10;;;18.70;99.90;;;;;;5033402;28;20034;-76
2022/10/27 11:21:12;;;;;;;10.25;4.18;;;18.70;99.90;;;;;;5032147;28;20028;-77
2022/10/27 11:23:45;;;;;;;10.02;4.03;;;18.80;99.90;;;;;;5022869;28;20060;-76
2022/10/27 11:26:12;;;;;;;9.85;4.25;;;18.90;99.90;;;;;;5015063;28;20386;-77
2022/10/27 11:28:56;;;;;;;13.75;4.60;;;18.90;99.90;;;;;;5031981;28;20034;-75
2022/10/27 11:31:37;;;;;;;9.55;4.03;;;18.90;99.90;;;;;;5032378;28;20076;-78
2022/10/27 11:34:34;;;;;;;10.70;3.70;;;18.90;99.90;;;;;;5031143;28;20063;-75
2022/10/27 11:37:22;;;;;;;12.65;4.35;;;18.90;99.90;;;;;;5032780;28;20046;-74
2022/10/27 11:40:01;;;;;;;13.40;4.32;;;18.90;99.90;;;;;;5014522;28;20056;-76
2022/10/27 11:42:53;;;;;;;11.13;4.03;;;18.90;99.90;;;;;;5032342;28;20034;-77
2022/10/27 11:45:41;;;;;;;14.95;4.38;;;19.00;99.90;;;;;;5022716;28;20101;-74
2022/10/27 11:48:12;;;;;;;9.90;3.58;;;19.10;99.90;;;;;;5014731;28;20046;-75
2022/10/27 11:50:56;;;;;;;9.02;3.88;;;19.20;99.90;;;;;;5032616;28;20034;-74
2022/10/27 11:53:22;;;;;;;11.07;3.88;;;19.30;99.90;;;;;;5031327;28;20068;-76
2022/10/27 11:56:00;;;;;;;9.93;3.50;;;19.30;99.90;;;;;;5031472;28;20085;-76
2022/10/27 11:58:43;;;;;;;8.93;3.53;;;19.20;99.90;;;;;;5032038;28;20022;-76
2022/10/27 12:01:33;;;;;;;5.43;3.20;;;19.20;99.90;;;;;;5030283;28;20437;-75
2022/10/27 12:04:10;;;;;;;8.27;3.58;;;19.10;99.90;;;;;;5031360;28;20044;-75
2022/10/27 12:06:58;;;;;;;8.07;3.25;;;19.00;99.90;;;;;;5030657;28;20025;-76
2022/10/27 12:09:54;;;;;;;8.35;3.30;;;19.00;99.90;;;;;;5031079;28;20029;-75
2022/10/27 12:12:32;;;;;;;8.35;3.08;;;19.00;99.90;;;;;;5031786;28;20041;-75
2022/10/27 12:15:03;;;;;;;8.77;3.30;;;19.10;99.90;;;;;;5031471;28;20025;-75
2022/10/27 12:17:51;;;;;;;9.90;2.92;;;19.20;99.90;;;;;;5031629;28;20077;-76
2022/10/27 12:20:36;;;;;;;10.15;3.00;;;19.20;99.90;;;;;;5031624;28;20036;-74
2022/10/27 12:23:07;;;;;;;7.28;3.17;;;19.20;99.90;;;;;;5030854;28;20101;-75
2022/10/27 12:25:51;;;;;;;11.27;3.58;;;19.30;99.90;;;;;;5031261;28;20437;-77
2022/10/27 12:28:18;;;;;;;4.55;2.88;;;19.30;99.90;;;;;;5031224;28;20022;-75
2022/10/27 12:30:46;;;;;;;9.98;3.33;;;19.30;99.90;;;;;;5030944;28;20041;-75
2022/10/27 12:33:29;;;;;;;9.40;3.17;;;19.30;99.90;;;;;;5031043;28;20493;-75
2022/10/27 12:36:04;;;;;;;6.68;3.10;;;19.20;99.90;;;;;;5021213;28;20056;-76
2022/10/27 12:38:47;;;;;;;15.93;4.03;;;19.20;99.90;;;;;;5021358;28;20021;-72
2022/10/27 12:41:21;;;;;;;8.18;3.70;;;19.20;99.90;;;;;;5034785;28;20025;-74
2022/10/27 12:43:47;;;;;;;;;;;19.10;99.90;;;;;;5035237;28;20021;-73
2022/10/27 12:46:12;;;;;;;7.57;3.08;;;19.00;99.90;;;;;;5016966;28;19920;-75
2022/10/27 12:48:56;;;;;;;10.00;3.58;;;19.00;99.90;;;;;;5034089;28;20056;-77
2022/10/27 12:51:50;;;;;;;12.48;3.72;;;19.00;99.90;;;;;;5033934;28;20042;-76